ADDS METAR Data INFO
IDs: Format: Raw Decoded Include TAF

Data at: 1847 UTC 16 Dec 2017

KDVT 161753Z 00000KT 10SM CLR 13/M06 A2980 RMK AO2 SLP083 T01331061 10133 20078 58000
KDVT 161653Z 10003KT 10SM CLR 11/M07 A2981 RMK AO2 SLP088 T01111067
KDVT 161553Z 00000KT 10SM CLR 09/M09 A2980 RMK AO2 SLP083 T00941094
KDVT 161453Z COR VRB04KT 10SM CLR 09/M09 A2980 RMK AO2 SLP084 T00941089 56015
KDVT 161353Z 00000KT 10SM CLR 08/M10 A2981 RMK AO2 SLP084 T00831100
KDVT 161253Z 00000KT 10SM CLR 08/M11 A2982 RMK AO2 SLP089 T00781111
KDVT 161153Z AUTO 00000KT 10SM CLR 09/M10 A2985 RMK AO2 SLP096 T00941100 10117 20083 58029
KDVT 161053Z AUTO 02006KT 10SM CLR 10/M10 A2989 RMK AO2 SLP110 T01001100
KDVT 160953Z AUTO 07005KT 10SM CLR 11/M10 A2991 RMK AO2 SLP114 T01111100
KDVT 160853Z AUTO 03009KT 10SM CLR 11/M09 A2994 RMK AO2 SLP127 T01061094 58017
KDVT 160753Z AUTO 00000KT 10SM CLR 11/M11 A2996 RMK AO2 SLP132 T01061106
KDVT 160653Z AUTO 02003KT 10SM CLR 09/M12 A2998 RMK AO2 SLP141 T00941122 402110072
KDVT 160553Z AUTO 03003KT 10SM CLR 11/M12 A2999 RMK AO2 SLP145 T01111122 10200 20100 56009
KDVT 160453Z AUTO 00000KT 10SM CLR 10/M13 A3000 RMK AO2 SLP151 T01001128
KDVT 160353Z 00000KT 10SM CLR 11/M13 A3000 RMK AO2 SLP153 T01111128
KDVT 160253Z 03003KT 10SM CLR 12/M13 A3002 RMK AO2 SLP159 T01221128 58005
KDVT 160153Z 00000KT 10SM CLR 16/M12 A3002 RMK AO2 SLP158 T01611122
KDVT 160053Z VRB04KT 10SM CLR 17/M13 A3003 RMK AO2 SLP159 T01721128
KDVT 152353Z 00000KT 10SM CLR 20/M14 A3003 RMK AO2 SLP158 T02001139 10211 20183 56023
KDVT 152253Z 17004KT 10SM CLR 21/M14 A3005 RMK AO2 SLP164 T02061139
KDVT 152153Z 14006KT 10SM CLR 21/M14 A3008 RMK AO2 SLP172 T02061144
KDVT 152053Z 08005KT 10SM CLR 21/M14 A3011 RMK AO2 SLP181 T02061144 58038
KDVT 151953Z VRB06KT 10SM CLR 20/M14 A3015 RMK AO2 SLP195 T02001139
KDVT 151853Z VRB03KT 10SM CLR 20/M15 A3019 RMK AO2 SLP210 T02001150
KDVT 151753Z VRB04KT 10SM CLR 19/M14 A3022 RMK AO2 SLP220 T01891144 10189 20072 50005
KDVT 151653Z 00000KT 10SM CLR 16/M14 A3022 RMK AO2 SLP223 T01561144
KDVT 151553Z 10007KT 10SM CLR 11/M12 A3021 RMK AO2 SLP220 T01111122
KDVT 151453Z 00000KT 10SM CLR 09/M12 A3021 RMK AO2 SLP220 T00891122 53016
KDVT 151353Z 00000KT 10SM CLR 09/M12 A3019 RMK AO2 SLP213 T00891122
KDVT 151253Z 02009KT 10SM CLR 10/M12 A3016 RMK AO2 SLP203 T01001117
KDVT 151153Z AUTO 08006KT 10SM CLR 13/M12 A3016 RMK AO2 SLP199 T01281117 10172 20117 50007
KDVT 151053Z AUTO 03004KT 10SM CLR 12/M10 A3017 RMK AO2 SLP201 T01221100
KDVT 150953Z AUTO 02012KT 10SM CLR 12/M09 A3015 RMK AO2 SLP197 T01221094
KDVT 150853Z AUTO 02015KT 10SM CLR 14/M09 A3014 RMK AO2 PK WND 02026/0757 SLP191 T01441094 51015
KDVT 150753Z AUTO 02016G21KT 10SM CLR 16/M09 A3012 RMK AO2 SLP186 T01561089
KDVT 150653Z 02013KT 10SM CLR 16/M09 A3011 RMK AO2 SLP184 T01561089 402330050